Time;durP1;ratioP1;P1;durP2;ratioP2;P2;SDS_P1;SDS_P2;PMS_P1;PMS_P2;Temp;Humidity;BMP_temperature;BMP_pressure;BME280_temperature;BME280_humidity;BME280_pressure;Samples;Min_cycle;Max_cycle;Signal;HPM_P1;HPM_P2
2022/05/22 00:00:22;;;;;;;;;;;10.70;99.90;;;;;;5041801;28;20390;-54
2022/05/22 00:02:48;;;;;;;;;;;10.70;99.90;;;;;;5036956;28;19921;-55
2022/05/22 00:05:16;;;;;;;;;;;10.70;99.90;;;;;;5040252;28;19947;-50
2022/05/22 00:07:42;;;;;;;;;;;10.60;99.90;;;;;;5042264;28;19924;-52
2022/05/22 00:10:08;;;;;;;;;;;10.60;99.90;;;;;;5042485;28;21452;-55
2022/05/22 00:12:34;;;;;;;;;;;10.60;99.90;;;;;;5045822;28;19917;-55
2022/05/22 00:14:59;;;;;;;;;;;10.50;99.90;;;;;;5040771;28;19974;-53
2022/05/22 00:17:25;;;;;;;;;;;10.60;99.90;;;;;;5042515;28;19944;-50
2022/05/22 00:19:50;;;;;;;;;;;10.50;99.90;;;;;;5044008;28;19925;-54
2022/05/22 00:22:17;;;;;;;;;;;10.50;99.90;;;;;;5043981;28;19920;-54
2022/05/22 00:24:42;;;;;;;;;;;10.50;99.90;;;;;;5041942;28;19917;-55
2022/05/22 00:27:08;;;;;;;;;;;10.50;99.90;;;;;;5045289;28;19974;-54
2022/05/22 00:29:34;;;;;;;;;;;10.50;99.90;;;;;;5037856;28;19920;-47
2022/05/22 00:31:59;;;;;;;;;;;10.40;99.90;;;;;;5040684;28;19932;-50
2022/05/22 00:34:25;;;;;;;;;;;10.40;99.90;;;;;;5038842;28;19920;-55
2022/05/22 00:36:50;;;;;;;;;;;10.40;99.90;;;;;;5042415;28;19916;-54
2022/05/22 00:39:16;;;;;;;;;;;10.50;99.90;;;;;;5045061;28;19925;-54
2022/05/22 00:41:46;;;;;;;;;;;10.50;99.90;;;;;;5035357;28;20000;-54
2022/05/22 00:44:11;;;;;;;;;;;10.50;99.90;;;;;;5035795;28;20350;-48
2022/05/22 00:46:37;;;;;;;;;;;10.50;99.90;;;;;;5043880;28;19959;-58
2022/05/22 00:49:06;;;;;;;;;;;10.50;99.90;;;;;;5036457;28;19921;-54
2022/05/22 00:51:37;;;;;;;;;;;10.50;99.90;;;;;;5041906;28;20384;-54
2022/05/22 00:54:17;;;;;;;;;;;10.50;99.90;;;;;;5039233;28;20086;-54
2022/05/22 00:56:46;;;;;;;;;;;10.50;99.90;;;;;;5038130;28;20495;-52
2022/05/22 00:59:14;;;;;;;;;;;10.50;99.90;;;;;;5041901;28;19928;-56
2022/05/22 01:01:40;;;;;;;;;;;10.50;99.90;;;;;;5036936;28;19932;-47
2022/05/22 01:04:08;;;;;;;;;;;10.50;99.90;;;;;;5038963;28;20177;-54
2022/05/22 01:06:34;;;;;;;;;;;10.50;99.90;;;;;;5044200;28;20011;-55
2022/05/22 01:09:00;;;;;;;;;;;10.50;99.90;;;;;;5042620;28;20027;-54
2022/05/22 01:11:28;;;;;;;;;;;10.50;99.90;;;;;;5043144;28;19916;-54
2022/05/22 01:14:01;;;;;;;;;;;10.40;99.90;;;;;;5041396;28;19917;-55
2022/05/22 01:16:26;;;;;;;;;;;10.40;99.90;;;;;;5040054;28;20428;-50
2022/05/22 01:18:53;;;;;;;;;;;10.40;99.90;;;;;;5038836;28;19940;-53
2022/05/22 01:21:29;;;;;;;;;;;10.40;99.90;;;;;;5040562;28;19917;-54
2022/05/22 01:23:55;;;;;;;;;;;10.40;99.90;;;;;;5057630;28;19971;-58
2022/05/22 01:26:21;;;;;;;;;;;10.40;99.90;;;;;;5041753;28;19956;-53
2022/05/22 01:28:47;;;;;;;;;;;10.40;99.90;;;;;;5036411;28;19967;-54
2022/05/22 01:31:13;;;;;;;;;;;10.30;99.90;;;;;;5054129;28;20377;-54
2022/05/22 01:33:40;;;;;;;;;;;10.30;99.90;;;;;;5038103;28;19917;-55
2022/05/22 01:36:05;;;;;;;;;;;10.30;99.90;;;;;;5039342;28;19920;-51
2022/05/22 01:38:31;;;;;;;;;;;10.30;99.90;;;;;;5045401;28;19979;-54
2022/05/22 01:40:57;;;;;;;;;;;10.30;99.90;;;;;;5045242;28;20008;-54
2022/05/22 01:43:23;;;;;;;;;;;10.20;99.90;;;;;;5038069;28;19983;-54
2022/05/22 01:45:48;;;;;;;;;;;10.20;99.90;;;;;;5038946;28;20381;-47
2022/05/22 01:48:14;;;;;;;;;;;10.20;99.90;;;;;;5044475;28;20296;-52
2022/05/22 01:50:40;;;;;;;;;;;10.20;99.90;;;;;;5040751;28;19920;-54
2022/05/22 01:53:06;;;;;;;;;;;10.20;99.90;;;;;;5041550;28;19920;-53
2022/05/22 01:55:32;;;;;;;;;;;10.20;99.90;;;;;;5035594;28;20211;-53
2022/05/22 01:57:57;;;;;;;;;;;10.20;99.90;;;;;;5034531;28;19944;-54
2022/05/22 02:00:24;;;;;;;;;;;10.20;99.90;;;;;;5035184;28;19921;-54
2022/05/22 02:02:50;;;;;;;;;;;10.20;99.90;;;;;;5042347;28;19921;-54
2022/05/22 02:05:16;;;;;;;;;;;10.20;99.90;;;;;;5035571;28;19927;-54
2022/05/22 02:10:27;;;;;;;;;;;10.20;99.90;;;;;;5050480;28;19932;-56
2022/05/22 02:12:53;;;;;;;;;;;10.20;99.90;;;;;;5041773;28;19927;-49
2022/05/22 02:15:19;;;;;;;;;;;10.20;99.90;;;;;;5038786;28;19920;-53
2022/05/22 02:17:45;;;;;;;;;;;10.20;99.90;;;;;;5035027;28;20309;-49
2022/05/22 02:20:11;;;;;;;;;;;10.20;99.90;;;;;;5035452;28;19930;-52
2022/05/22 02:22:45;;;;;;;;;;;10.10;99.90;;;;;;5035989;28;20272;-54
2022/05/22 02:25:14;;;;;;;;;;;10.10;99.90;;;;;;5036101;28;19982;-51
2022/05/22 02:27:40;;;;;;;;;;;10.10;99.90;;;;;;5038282;28;20301;-52
2022/05/22 02:30:06;;;;;;;;;;;10.10;99.90;;;;;;5036204;28;19921;-47
2022/05/22 02:32:31;;;;;;;;;;;10.10;99.90;;;;;;5040587;28;19943;-54
2022/05/22 02:34:57;;;;;;;;;;;10.10;99.90;;;;;;5043869;28;19921;-54
2022/05/22 02:37:22;;;;;;;;;;;10.10;99.90;;;;;;5039953;28;19920;-52
2022/05/22 02:39:48;;;;;;;;;;;10.10;99.90;;;;;;5038078;28;19920;-54
2022/05/22 02:42:14;;;;;;;;;;;10.10;99.90;;;;;;5038235;28;20000;-53
2022/05/22 02:44:39;;;;;;;;;;;10.00;99.90;;;;;;5036166;28;20438;-53
2022/05/22 02:47:05;;;;;;;;;;;10.10;99.90;;;;;;5025010;28;20422;-49
2022/05/22 02:49:32;;;;;;;;;;;10.00;99.90;;;;;;5043568;28;19963;-49
2022/05/22 02:51:59;;;;;;;;;;;10.10;99.90;;;;;;5040392;28;19943;-53
2022/05/22 02:54:25;;;;;;;;;;;10.10;99.90;;;;;;5043653;28;19916;-53
2022/05/22 02:56:51;;;;;;;;;;;10.10;99.90;;;;;;5038627;28;19931;-52
2022/05/22 02:59:16;;;;;;;;;;;10.00;99.90;;;;;;5035335;28;20489;-50
2022/05/22 03:01:42;;;;;;;;;;;10.00;99.90;;;;;;5045629;28;20376;-52
2022/05/22 03:04:07;;;;;;;;;;;10.00;99.90;;;;;;5043521;28;20434;-53
2022/05/22 03:06:39;;;;;;;;;;;10.00;99.90;;;;;;5040174;28;19928;-50
2022/05/22 03:09:05;;;;;;;;;;;9.90;99.90;;;;;;5041680;28;19921;-51
2022/05/22 03:11:31;;;;;;;;;;;9.90;99.90;;;;;;5032633;28;19947;-51
2022/05/22 03:13:56;;;;;;;;;;;9.90;99.90;;;;;;5043893;28;19933;-53
2022/05/22 03:16:22;;;;;;;;;;;9.90;99.90;;;;;;5038554;28;19971;-47
2022/05/22 03:18:47;;;;;;;;;;;9.80;99.90;;;;;;5038490;28;19935;-53
2022/05/22 03:21:13;;;;;;;;;;;9.90;99.90;;;;;;5032707;28;19917;-53
2022/05/22 03:23:39;;;;;;;;;;;9.90;99.90;;;;;;5040618;28;19921;-53
2022/05/22 03:26:05;;;;;;;;;;;9.90;99.90;;;;;;5038655;28;19921;-53
2022/05/22 03:28:30;;;;;;;;;;;10.00;99.90;;;;;;5038762;28;19921;-45
2022/05/22 03:30:56;;;;;;;;;;;9.90;99.90;;;;;;5041974;28;21686;-52
2022/05/22 03:33:22;;;;;;;;;;;9.90;99.90;;;;;;5043267;28;20062;-53
2022/05/22 03:35:47;;;;;;;;;;;9.90;99.90;;;;;;5038349;28;19975;-52
2022/05/22 03:38:13;;;;;;;;;;;9.90;99.90;;;;;;5036532;28;19929;-53
2022/05/22 03:40:41;;;;;;;;;;;9.90;99.90;;;;;;5035642;28;19917;-46
2022/05/22 03:43:06;;;;;;;;;;;9.90;99.90;;;;;;5035660;28;19928;-50
2022/05/22 03:45:32;;;;;;;;;;;9.90;99.90;;;;;;5039617;28;20281;-51
2022/05/22 03:47:57;;;;;;;;;;;9.90;99.90;;;;;;5042617;28;20349;-53
2022/05/22 03:50:24;;;;;;;;;;;9.90;99.90;;;;;;5037535;28;20361;-53
2022/05/22 03:52:51;;;;;;;;;;;9.90;99.90;;;;;;5031650;28;20404;-53
2022/05/22 03:55:17;;;;;;;;;;;9.90;99.90;;;;;;5043625;28;19928;-52
2022/05/22 03:57:47;;;;;;;;;;;9.90;99.90;;;;;;5057552;28;19916;-52
2022/05/22 04:00:13;;;;;;;;;;;9.90;99.90;;;;;;5040013;28;20373;-50
2022/05/22 04:02:38;;;;;;;;;;;9.90;99.90;;;;;;5041677;28;19947;-53
2022/05/22 04:05:07;;;;;;;;;;;9.90;99.90;;;;;;5044830;28;19920;-53
2022/05/22 04:07:35;;;;;;;;;;;9.90;99.90;;;;;;5046345;28;19939;-53
2022/05/22 04:10:01;;;;;;;;;;;9.90;99.90;;;;;;5038079;28;20226;-51
2022/05/22 04:12:27;;;;;;;;;;;9.90;99.90;;;;;;5039782;28;19925;-52
2022/05/22 04:14:53;;;;;;;;;;;9.90;99.90;;;;;;5037781;28;19916;-54
2022/05/22 04:17:18;;;;;;;;;;;9.90;99.90;;;;;;5044496;28;19924;-53
2022/05/22 04:19:44;;;;;;;;;;;9.80;99.90;;;;;;5032368;28;19982;-52
2022/05/22 04:22:10;;;;;;;;;;;9.80;99.90;;;;;;5039919;28;19921;-54
2022/05/22 04:27:19;;;;;;;;;;;9.90;99.90;;;;;;5043166;28;19917;-54
2022/05/22 04:29:45;;;;;;;;;;;9.90;99.90;;;;;;5042732;28;19982;-54
2022/05/22 04:32:11;;;;;;;;;;;10.00;99.90;;;;;;5037824;28;19916;-47
2022/05/22 04:34:37;;;;;;;;;;;10.00;99.90;;;;;;5034571;28;19921;-47
2022/05/22 04:37:02;;;;;;;;;;;9.90;99.90;;;;;;5041180;28;19920;-53
2022/05/22 04:39:28;;;;;;;;;;;10.00;99.90;;;;;;5040969;28;19933;-52
2022/05/22 04:41:53;;;;;;;;;;;10.00;99.90;;;;;;5034478;28;19928;-54
2022/05/22 04:44:20;;;;;;;;;;;10.00;99.90;;;;;;5042976;28;20314;-46
2022/05/22 04:46:46;;;;;;;;;;;10.10;99.90;;;;;;5052891;28;19917;-54
2022/05/22 04:49:11;;;;;;;;;;;10.10;99.90;;;;;;5033434;28;20293;-46
2022/05/22 04:51:37;;;;;;;;;;;10.10;99.90;;;;;;5039213;28;20073;-53
2022/05/22 04:54:03;;;;;;;;;;;10.10;99.90;;;;;;5039553;28;19916;-54
2022/05/22 04:56:28;;;;;;;;;;;10.20;99.90;;;;;;5040741;28;19921;-53
2022/05/22 04:58:54;;;;;;;;;;;10.20;99.90;;;;;;5038622;28;19928;-54
2022/05/22 05:01:19;;;;;;;;;;;10.20;99.90;;;;;;5037077;28;19967;-53
2022/05/22 05:03:45;;;;;;;;;;;10.30;99.90;;;;;;5045654;28;19916;-54
2022/05/22 05:06:11;;;;;;;;;;;10.30;99.90;;;;;;5036575;28;20108;-54
2022/05/22 05:08:37;;;;;;;;;;;10.30;99.90;;;;;;5041550;28;20368;-47
2022/05/22 05:11:03;;;;;;;;;;;10.40;99.90;;;;;;5040663;28;19944;-52
2022/05/22 05:13:29;;;;;;;;;;;10.50;99.90;;;;;;5043730;28;20377;-55
2022/05/22 05:15:58;;;;;;;;;;;10.50;99.90;;;;;;5033771;28;19931;-50
2022/05/22 05:18:24;;;;;;;;;;;10.60;99.90;;;;;;5042112;28;19924;-54
2022/05/22 05:20:49;;;;;;;;;;;10.70;99.90;;;;;;5036247;28;20253;-54
2022/05/22 05:23:15;;;;;;;;;;;10.70;99.90;;;;;;5036343;28;19971;-55
2022/05/22 05:25:40;;;;;;;;;;;10.80;99.90;;;;;;5035606;28;19968;-54
2022/05/22 05:28:06;;;;;;;;;;;10.90;99.90;;;;;;5031431;28;20602;-54
2022/05/22 05:30:32;;;;;;;;;;;10.90;99.90;;;;;;5052876;28;19935;-51
2022/05/22 05:32:57;;;;;;;;;;;11.00;99.90;;;;;;5043530;28;19964;-52
2022/05/22 05:35:23;;;;;;;;;;;11.00;99.90;;;;;;5039298;28;20361;-54
2022/05/22 05:37:48;;;;;;;;;;;11.10;99.90;;;;;;5041124;28;19921;-54
2022/05/22 05:40:14;;;;;;;;;;;11.20;99.90;;;;;;5045026;28;19928;-53
2022/05/22 05:42:40;;;;;;;;;;;11.30;99.90;;;;;;5045168;28;20031;-55
2022/05/22 05:45:06;;;;;;;;;;;11.40;99.90;;;;;;5040430;28;19924;-54
2022/05/22 05:47:32;;;;;;;;;;;11.40;99.90;;;;;;5035388;28;19980;-53
2022/05/22 05:49:58;;;;;;;;;;;11.50;99.90;;;;;;5033232;28;19929;-54
2022/05/22 05:52:23;;;;;;;;;;;11.60;99.90;;;;;;5033195;28;19929;-54
2022/05/22 05:54:49;;;;;;;;;;;11.60;99.90;;;;;;5038262;28;20360;-47
2022/05/22 05:57:15;;;;;;;;;;;11.70;99.90;;;;;;5042009;28;20241;-55
2022/05/22 05:59:40;;;;;;;;;;;11.80;99.90;;;;;;5035372;28;19928;-55
2022/05/22 06:02:09;;;;;;;;;;;11.90;99.90;;;;;;5034258;28;19921;-55
2022/05/22 06:04:35;;;;;;;;;;;12.00;99.90;;;;;;5040272;28;19925;-54
2022/05/22 06:07:02;;;;;;;;;;;12.10;99.90;;;;;;5039533;28;20285;-55
2022/05/22 06:09:27;;;;;;;;;;;12.10;99.90;;;;;;5042218;28;19925;-53
2022/05/22 06:11:53;;;;;;;;;;;12.30;99.90;;;;;;5038045;28;19986;-54
2022/05/22 06:14:18;;;;;;;;;;;12.40;99.90;;;;;;5042889;28;19936;-55
2022/05/22 06:16:44;;;;;;;;;;;12.40;99.90;;;;;;5035141;28;19968;-49
2022/05/22 06:19:09;;;;;;;;;;;12.60;99.90;;;;;;5044345;28;19923;-55
2022/05/22 06:21:35;;;;;;;;;;;12.70;99.90;;;;;;5037416;28;20001;-55
2022/05/22 06:24:00;;;;;;;;;;;12.70;99.90;;;;;;5046007;28;19920;-55
2022/05/22 06:26:26;;;;;;;;;;;12.80;99.90;;;;;;5045085;28;19917;-54
2022/05/22 06:28:52;;;;;;;;;;;12.80;99.90;;;;;;5040860;28;19970;-51
2022/05/22 06:31:17;;;;;;;;;;;12.90;99.90;;;;;;5037498;28;19932;-53
2022/05/22 06:33:43;;;;;;;;;;;13.00;99.90;;;;;;5054857;28;19925;-52
2022/05/22 06:36:14;;;;;;;;;;;13.10;99.90;;;;;;5043698;28;20019;-55
2022/05/22 06:41:25;;;;;;;;;;;13.30;99.90;;;;;;5041313;28;19928;-51
2022/05/22 06:43:51;;;;;;;;;;;13.40;99.90;;;;;;5040658;28;19921;-52
2022/05/22 06:46:18;;;;;;;;;;;13.50;99.90;;;;;;5048885;28;20322;-56
2022/05/22 06:48:43;;;;;;;;;;;13.60;99.90;;;;;;5042394;28;19920;-48
2022/05/22 06:51:09;;;;;;;;;;;13.60;99.90;;;;;;5046778;28;19925;-55
2022/05/22 06:53:34;;;;;;;;;;;13.70;99.90;;;;;;5048174;28;19929;-55
2022/05/22 06:56:00;;;;;;;;;;;13.80;99.90;;;;;;5047506;28;19930;-56
2022/05/22 06:58:25;;;;;;;;;;;13.90;99.90;;;;;;5042408;28;20019;-56
2022/05/22 07:00:52;;;;;;;;;;;14.00;99.90;;;;;;5037964;28;20293;-54
2022/05/22 07:03:17;;;;;;;;;;;14.00;99.90;;;;;;5043028;28;19929;-55
2022/05/22 07:05:43;;;;;;;;;;;14.10;99.90;;;;;;5047680;28;20450;-53
2022/05/22 07:08:09;;;;;;;;;;;14.20;99.90;;;;;;5042408;28;19924;-54
2022/05/22 07:13:18;;;;;;;;;;;14.40;99.90;;;;;;5045871;28;19925;-55
2022/05/22 07:15:44;;;;;;;;;;;14.50;99.90;;;;;;5046929;28;19924;-57
2022/05/22 07:18:09;;;;;;;;;;;14.60;99.90;;;;;;5042074;28;20292;-56
2022/05/22 07:20:35;;;;;;;;;;;14.70;99.90;;;;;;5042582;28;19925;-56
2022/05/22 07:23:00;;;;;;;;;;;14.80;99.90;;;;;;5046638;28;20007;-56
2022/05/22 07:25:26;;;;;;;;;;;14.80;99.90;;;;;;5042848;28;20011;-56
2022/05/22 07:27:52;;;;;;;;;;;14.90;99.90;;;;;;5040596;28;20330;-54
2022/05/22 07:30:17;;;;;;;;;;;14.90;99.90;;;;;;5042335;28;19994;-45
2022/05/22 07:32:43;;;;;;;;;;;15.00;99.90;;;;;;5048253;28;20496;-54
2022/05/22 07:35:09;;;;;;;;;;;15.10;99.90;;;;;;5041446;28;19944;-55
2022/05/22 07:37:34;;;;;;;;;;;15.10;99.90;;;;;;5047199;28;19925;-58
2022/05/22 07:40:00;;;;;;;;;;;15.10;99.90;;;;;;5045340;28;19947;-50
2022/05/22 07:42:25;;;;;;;;;;;15.20;99.90;;;;;;5042377;28;20301;-55
2022/05/22 07:44:51;;;;;;;;;;;15.30;99.90;;;;;;5053314;28;20028;-56
2022/05/22 07:47:16;;;;;;;;;;;15.40;99.90;;;;;;5042402;28;20412;-54
2022/05/22 07:52:26;;;;;;;;;;;15.50;99.90;;;;;;5040487;28;19989;-57
2022/05/22 07:54:51;;;;;;;;;;;15.60;99.90;;;;;;5042321;28;19921;-56
2022/05/22 07:57:17;;;;;;;;;;;15.60;99.90;;;;;;5030080;28;21190;-56
2022/05/22 07:59:43;;;;;;;;;;;15.70;99.90;;;;;;5036438;28;20015;-52
2022/05/22 08:02:12;;;;;;;;;;;15.80;99.90;;;;;;5035786;28;19921;-55
2022/05/22 08:04:38;;;;;;;;;;;15.80;99.90;;;;;;5043395;28;19924;-56
2022/05/22 08:07:04;;;;;;;;;;;15.90;99.90;;;;;;5034972;28;19926;-51
2022/05/22 08:09:30;;;;;;;;;;;16.00;99.90;;;;;;5043905;28;19916;-56
2022/05/22 08:11:55;;;;;;;;;;;16.00;99.90;;;;;;5029103;28;19917;-54
2022/05/22 08:14:21;;;;;;;;;;;16.20;99.90;;;;;;5029268;28;20130;-56
2022/05/22 08:16:46;;;;;;;;;;;16.20;99.90;;;;;;5035845;28;19920;-56
2022/05/22 08:19:12;;;;;;;;;;;16.30;99.90;;;;;;5038038;28;20628;-56
2022/05/22 08:21:38;;;;;;;;;;;16.40;99.30;;;;;;5036873;28;19948;-56
2022/05/22 08:24:04;;;;;;;;;;;16.50;98.60;;;;;;5032314;28;19921;-54
2022/05/22 08:26:29;;;;;;;;;;;16.60;98.80;;;;;;5033271;28;20388;-56
2022/05/22 08:28:55;;;;;;;;;;;16.70;98.30;;;;;;5031739;28;19924;-55
2022/05/22 08:31:21;;;;;;;;;;;16.80;96.70;;;;;;5029716;28;19920;-56
2022/05/22 08:33:46;;;;;;;;;;;16.90;97.60;;;;;;5038142;28;19924;-56
2022/05/22 08:36:12;;;;;;;;;;;17.00;95.70;;;;;;5039076;28;19917;-57
2022/05/22 08:38:38;;;;;;;;;;;17.10;97.40;;;;;;5039798;28;19967;-55
2022/05/22 08:41:04;;;;;;;;;;;17.30;96.90;;;;;;5034806;28;20300;-54
2022/05/22 08:43:32;;;;;;;;;;;17.40;93.90;;;;;;5032693;28;20051;-54
2022/05/22 08:46:09;;;;;;;;;;;17.50;95.00;;;;;;5037905;28;20309;-47
2022/05/22 08:48:47;;;;;;;;;;;17.50;94.60;;;;;;5042859;28;20258;-55
2022/05/22 08:51:18;;;;;;;;;;;17.60;93.30;;;;;;5034213;28;20015;-56
2022/05/22 08:53:46;;;;;;;;;;;17.60;93.50;;;;;;5037621;28;19924;-57
2022/05/22 08:59:05;;;;;;;;;;;17.50;91.50;;;;;;5036366;28;20397;-56
2022/05/22 09:01:37;;;;;;;;;;;17.60;93.60;;;;;;5034140;28;19920;-48
2022/05/22 09:04:11;;;;;;;;;;;17.70;90.10;;;;;;5035529;28;19924;-56
2022/05/22 09:07:00;;;;;;;;;;;17.80;91.30;;;;;;5042769;28;20011;-56
2022/05/22 09:09:27;;;;;;;;;;;17.90;91.70;;;;;;5035186;28;21357;-48
2022/05/22 09:12:02;;;;;;;;;;;18.00;90.00;;;;;;5045304;28;20310;-51
2022/05/22 09:14:39;;;;;;;;;;;18.10;87.30;;;;;;5041163;28;20018;-57
2022/05/22 09:17:17;;;;;;;;;;;18.00;87.20;;;;;;5036737;28;19917;-54
2022/05/22 09:19:44;;;;;;;;;;;18.00;86.30;;;;;;5037859;28;20621;-56
2022/05/22 09:22:19;;;;;;;;;;;18.10;90.30;;;;;;5034598;28;20329;-50
2022/05/22 09:25:01;;;;;;;;;;;18.20;84.60;;;;;;5034091;28;19944;-56
2022/05/22 09:27:39;;;;;;;;;;;18.30;87.20;;;;;;5035643;28;20010;-56
2022/05/22 09:30:04;;;;;;;;;;;18.40;85.20;;;;;;5041185;28;20336;-47
2022/05/22 09:32:40;;;;;;;;;;;18.60;83.20;;;;;;5035869;28;20055;-49
2022/05/22 09:35:06;;;;;;;;;;;18.70;85.50;;;;;;5029291;28;19925;-54
2022/05/22 09:37:46;;;;;;;;;;;18.80;85.90;;;;;;5025414;28;20419;-53
2022/05/22 09:40:18;;;;;;;;;;;18.90;82.80;;;;;;5049647;28;19936;-56
2022/05/22 09:43:03;;;;;;;;;;;19.00;78.60;;;;;;5027575;28;20039;-49
2022/05/22 09:45:29;;;;;;;;;;;19.10;78.10;;;;;;5035856;28;21503;-53
2022/05/22 09:48:15;;;;;;;;;;;19.10;83.90;;;;;;5034762;28;20297;-54
2022/05/22 09:50:46;;;;;;;;;;;19.10;78.90;;;;;;5035457;28;19925;-53
2022/05/22 09:53:18;;;;;;;;;;;19.10;78.00;;;;;;5032958;28;19921;-56
2022/05/22 09:55:50;;;;;;;;;;;19.00;75.30;;;;;;5034049;28;19935;-55
2022/05/22 09:58:29;;;;;;;;;;;19.10;78.70;;;;;;5039628;28;19925;-49
2022/05/22 10:00:55;;;;;;;;;;;19.30;81.30;;;;;;5037379;28;19925;-47
2022/05/22 10:03:21;;;;;;;;;;;19.40;78.30;;;;;;5051943;28;19917;-50
2022/05/22 10:05:52;;;;;;;;;;;19.50;79.50;;;;;;5042359;28;19925;-56
2022/05/22 10:08:32;;;;;;;;;;;19.50;78.50;;;;;;5044008;28;19916;-56
2022/05/22 10:11:05;;;;;;;;;;;19.50;78.70;;;;;;5041443;28;19925;-54
2022/05/22 10:13:40;;;;;;;;;;;19.50;76.50;;;;;;5036878;28;20086;-58
2022/05/22 10:16:08;;;;;;;;;;;19.50;69.80;;;;;;5038170;28;19932;-49
2022/05/22 10:18:37;;;;;;;;;;;19.40;71.20;;;;;;5036704;28;19928;-55
2022/05/22 10:21:21;;;;;;;;;;;19.40;73.70;;;;;;5031394;28;20648;-56
2022/05/22 10:23:55;;;;;;;;;;;19.40;69.40;;;;;;5041045;28;20422;-59
2022/05/22 10:26:34;;;;;;;;;;;19.50;73.30;;;;;;5039330;28;19952;-56
2022/05/22 10:29:03;;;;;;;;;;;19.60;66.20;;;;;;5040685;28;19958;-52
2022/05/22 10:31:36;;;;;;;;;;;19.80;66.70;;;;;;5035578;28;20046;-53
2022/05/22 10:34:06;;;;;;;;;;;19.80;66.70;;;;;;5036017;28;19945;-56
2022/05/22 10:36:38;;;;;;;;;;;19.90;72.50;;;;;;5036438;28;20293;-57
2022/05/22 10:39:05;;;;;;;;;;;19.90;67.70;;;;;;5046167;28;20226;-56
2022/05/22 10:44:19;;;;;;;;;;;20.00;64.60;;;;;;5044286;28;20388;-56
2022/05/22 10:46:49;;;;;;;;;;;20.00;65.30;;;;;;5044702;28;20408;-54
2022/05/22 10:49:15;;;;;;;;;;;19.90;62.80;;;;;;5041721;28;19966;-53
2022/05/22 10:51:41;;;;;;;;;;;20.00;63.20;;;;;;5040714;28;20007;-56
2022/05/22 10:54:07;;;;;;;;;;;19.90;59.50;;;;;;5045714;28;20003;-50
2022/05/22 10:56:33;;;;;;;;;;;20.10;59.40;;;;;;5035907;28;19924;-55
2022/05/22 10:59:03;;;;;;;;;;;20.30;67.50;;;;;;5043612;28;19925;-57
2022/05/22 11:01:30;;;;;;;;;;;20.60;65.50;;;;;;5044799;28;20021;-54
2022/05/22 11:04:08;;;;;;;;;;;20.90;57.60;;;;;;5041723;28;19925;-56
2022/05/22 11:06:53;;;;;;;;;;;20.80;57.00;;;;;;5044298;28;20324;-50
2022/05/22 11:09:26;;;;;;;;;;;20.70;57.40;;;;;;5039348;28;19967;-56
2022/05/22 11:12:02;;;;;;;;;;;20.80;57.50;;;;;;5040281;28;20405;-56
2022/05/22 11:14:28;;;;;;;;;;;21.10;58.40;;;;;;5043797;28;19929;-57
2022/05/22 11:16:54;;;;;;;;;;;21.20;58.40;;;;;;5044090;28;20388;-57
2022/05/22 11:19:24;;;;;;;;;;;21.30;54.10;;;;;;5042797;28;19929;-56
2022/05/22 11:21:49;;;;;;;;;;;21.40;55.10;;;;;;5038316;28;19917;-54
2022/05/22 11:24:38;;;;;;;;;;;21.60;55.10;;;;;;5039949;28;20301;-56
2022/05/22 11:27:22;;;;;;;;;;;21.70;51.30;;;;;;5042857;28;19925;-58
2022/05/22 11:29:57;;;;;;;;;;;21.70;55.60;;;;;;5039650;28;19959;-57
2022/05/22 11:32:28;;;;;;;;;;;21.60;54.40;;;;;;5042095;28;20014;-53
2022/05/22 11:34:57;;;;;;;;;;;21.60;55.90;;;;;;5039643;28;19921;-57
2022/05/22 11:37:36;;;;;;;;;;;21.70;55.80;;;;;;5037188;28;20381;-55
2022/05/22 11:40:24;;;;;;;;;;;21.90;53.00;;;;;;5040742;28;19927;-57
2022/05/22 11:43:09;;;;;;;;;;;22.10;53.10;;;;;;5037022;28;20046;-52
2022/05/22 11:45:53;;;;;;;;;;;22.20;52.40;;;;;;5041340;28;19975;-52
2022/05/22 11:48:18;;;;;;;;;;;22.50;51.00;;;;;;5050839;28;19921;-53
2022/05/22 11:50:47;;;;;;;;;;;22.60;49.50;;;;;;5033772;28;19920;-52
2022/05/22 11:53:31;;;;;;;;;;;22.60;51.20;;;;;;5055811;28;20468;-56
2022/05/22 11:56:18;;;;;;;;;;;22.40;48.50;;;;;;5045410;28;19917;-53
2022/05/22 11:58:52;;;;;;;;;;;22.20;48.10;;;;;;5040567;28;20023;-53
2022/05/22 12:01:23;;;;;;;;;;;22.20;50.00;;;;;;5037795;28;20004;-53
2022/05/22 12:04:05;;;;;;;;;;;22.10;49.30;;;;;;5041065;28;19921;-53
2022/05/22 12:06:43;;;;;;;;;;;22.10;51.60;;;;;;5046011;28;20448;-54
2022/05/22 12:09:18;;;;;;;;;;;22.20;50.20;;;;;;5037479;28;19983;-55
2022/05/22 12:11:53;;;;;;;;;;;22.40;50.10;;;;;;5038212;28;19968;-55
2022/05/22 12:14:37;;;;;;;;;;;22.40;47.40;;;;;;5044050;28;20382;-55
2022/05/22 12:17:15;;;;;;;;;;;22.30;49.80;;;;;;5036778;28;20285;-55
2022/05/22 12:19:59;;;;;;;;;;;22.30;50.10;;;;;;5039925;28;19924;-49
2022/05/22 12:25:17;;;;;;;;;;;22.30;49.40;;;;;;5045679;28;19924;-57
2022/05/22 12:27:43;;;;;;;;;;;22.20;49.90;;;;;;5046353;28;19929;-57
2022/05/22 12:30:10;;;;;;;;;;;22.20;51.50;;;;;;5035508;28;19951;-53
2022/05/22 12:32:48;;;;;;;;;;;22.30;50.80;;;;;;5038676;28;19960;-57
2022/05/22 12:35:15;;;;;;;;;;;22.60;50.20;;;;;;5038340;28;19970;-55
2022/05/22 12:37:42;;;;;;;;;;;22.80;49.10;;;;;;5043020;28;20397;-56
2022/05/22 12:40:16;;;;;;;;;;;22.90;47.80;;;;;;5042764;28;19935;-58
2022/05/22 12:42:44;;;;;;;;;;;23.00;46.30;;;;;;5036907;28;19928;-59
2022/05/22 12:45:10;;;;;;;;;;;23.20;47.30;;;;;;5035281;28;19916;-55
2022/05/22 12:47:48;;;;;;;;;;;23.40;47.60;;;;;;5042517;28;19931;-54
2022/05/22 12:50:43;;;;;;;;;;;23.60;46.90;;;;;;5036641;28;19924;-54
2022/05/22 12:53:26;;;;;;;;;;;23.70;46.20;;;;;;5028646;28;19994;-55
2022/05/22 12:55:52;;;;;;;;;;;23.50;44.10;;;;;;5037954;28;19992;-56
2022/05/22 12:58:47;;;;;;;;;;;23.30;44.80;;;;;;5040634;28;19924;-57
2022/05/22 13:01:22;;;;;;;;;;;23.10;45.60;;;;;;5027581;28;21102;-56
2022/05/22 13:03:49;;;;;;;;;;;23.00;45.30;;;;;;5042602;28;19928;-56
2022/05/22 13:06:19;;;;;;;;;;;23.20;46.70;;;;;;5035929;28;20377;-57
2022/05/22 13:08:48;;;;;;;;;;;23.20;44.60;;;;;;5044777;28;19942;-57
2022/05/22 13:11:15;;;;;;;;;;;23.30;47.50;;;;;;5042664;28;19963;-56
2022/05/22 13:13:50;;;;;;;;;;;23.40;47.20;;;;;;5038285;28;19939;-54
2022/05/22 13:16:29;;;;;;;;;;;23.40;45.90;;;;;;5033574;28;19921;-51
2022/05/22 13:18:55;;;;;;;;;;;23.40;45.20;;;;;;5033311;28;20316;-50
2022/05/22 13:21:29;;;;;;;;;;;23.40;45.20;;;;;;5040231;28;19920;-55
2022/05/22 13:24:02;;;;;;;;;;;23.40;46.00;;;;;;5021587;28;19945;-55
2022/05/22 13:26:29;;;;;;;;;;;23.60;46.10;;;;;;5045425;28;19923;-54
2022/05/22 13:28:58;;;;;;;;;;;23.90;43.30;;;;;;5035620;28;20019;-56
2022/05/22 13:31:37;;;;;;;;;;;24.20;43.60;;;;;;5047497;28;19916;-56
2022/05/22 13:34:07;;;;;;;;;;;24.60;45.40;;;;;;5045367;28;19923;-55
2022/05/22 13:36:34;;;;;;;;;;;24.70;42.70;;;;;;5045692;28;20044;-55
2022/05/22 13:38:59;;;;;;;;;;;24.70;41.60;;;;;;5046398;28;20381;-54
2022/05/22 13:41:45;;;;;;;;;;;24.50;42.40;;;;;;5040459;28;19966;-56
2022/05/22 13:44:10;;;;;;;;;;;24.40;43.40;;;;;;5025846;28;19967;-53
2022/05/22 13:46:48;;;;;;;;;;;24.20;42.50;;;;;;5032320;28;19975;-55
2022/05/22 13:49:25;;;;;;;;;;;24.30;41.60;;;;;;5039409;28;19955;-56
2022/05/22 13:54:40;;;;;;;;;;;24.70;41.60;;;;;;5034202;28;19986;-55
2022/05/22 13:57:11;;;;;;;;;;;25.10;42.20;;;;;;5040365;28;19917;-52
2022/05/22 13:59:40;;;;;;;;;;;25.60;41.00;;;;;;5050307;28;20389;-53
2022/05/22 14:02:08;;;;;;;;;;;26.20;40.00;;;;;;5038413;28;20357;-55
2022/05/22 14:04:41;;;;;;;;;;;26.70;39.00;;;;;;5041507;28;19925;-56
2022/05/22 14:07:09;;;;;;;;;;;27.00;37.60;;;;;;5035886;28;19921;-56
2022/05/22 14:09:38;;;;;;;;;;;27.60;37.50;;;;;;5040318;28;19923;-57
2022/05/22 14:12:06;;;;;;;;;;;28.20;37.30;;;;;;5045664;28;19924;-55
2022/05/22 14:14:33;;;;;;;;;;;28.60;37.40;;;;;;5036495;28;19924;-56
2022/05/22 14:17:02;;;;;;;;;;;28.90;34.50;;;;;;5033374;28;19921;-55
2022/05/22 14:19:29;;;;;;;;;;;28.80;34.60;;;;;;5039863;28;19972;-57
2022/05/22 14:21:57;;;;;;;;;;;28.60;35.40;;;;;;5036877;28;20396;-56
2022/05/22 14:27:21;;;;;;;;;;;27.90;36.40;;;;;;5032262;28;19920;-55
2022/05/22 14:29:46;;;;;;;;;;;27.90;36.40;;;;;;5036222;28;19964;-55
2022/05/22 14:32:16;;;;;;;;;;;27.90;36.00;;;;;;5029649;28;19963;-54
2022/05/22 14:34:45;;;;;;;;;;;27.80;36.50;;;;;;5032501;28;20262;-56
2022/05/22 14:37:11;;;;;;;;;;;27.80;37.50;;;;;;5051520;28;20002;-57
2022/05/22 14:39:47;;;;;;;;;;;27.70;36.30;;;;;;5035397;28;19940;-54
2022/05/22 14:42:15;;;;;;;;;;;27.20;37.50;;;;;;5029921;28;19982;-51
2022/05/22 14:44:41;;;;;;;;;;;26.80;38.90;;;;;;5033319;28;20269;-58
2022/05/22 14:47:06;;;;;;;;;;;27.30;38.20;;;;;;5051416;28;20548;-57
2022/05/22 14:49:35;;;;;;;;;;;27.90;38.00;;;;;;5040191;28;19920;-56
2022/05/22 14:52:27;;;;;;;;;;;28.40;35.30;;;;;;5041670;28;19947;-57
2022/05/22 14:54:54;;;;;;;;;;;28.80;34.40;;;;;;5034524;28;19921;-57